sensor_id;sensor_type;location;lat;lon;timestamp;temperature;humidity
52471;DHT22;38382;53.160;7.026;2024-03-23T00:53:27;5.70;99.90
52471;DHT22;38382;53.160;7.026;2024-03-23T00:55:52;5.80;99.90
52471;DHT22;38382;53.160;7.026;2024-03-23T00:58:18;5.80;99.90
52471;DHT22;38382;53.160;7.026;2024-03-23T01:00:44;5.70;99.90
52471;DHT22;38382;53.160;7.026;2024-03-23T01:03:10;5.70;99.90
52471;DHT22;38382;53.160;7.026;2024-03-23T01:05:35;5.60;99.90
52471;DHT22;38382;53.160;7.026;2024-03-23T01:08:01;5.60;99.90
52471;DHT22;38382;53.160;7.026;2024-03-23T01:10:27;5.60;99.90
52471;DHT22;38382;53.160;7.026;2024-03-23T01:12:53;5.60;99.90
52471;DHT22;38382;53.160;7.026;2024-03-23T01:15:18;5.60;99.90
52471;DHT22;38382;53.160;7.026;2024-03-23T01:17:44;5.50;99.90
52471;DHT22;38382;53.160;7.026;2024-03-23T01:20:10;5.50;99.90
52471;DHT22;38382;53.160;7.026;2024-03-23T01:22:36;5.50;99.90
52471;DHT22;38382;53.160;7.026;2024-03-23T01:25:01;6.00;99.90
52471;DHT22;38382;53.160;7.026;2024-03-23T01:27:27;5.40;99.90
52471;DHT22;38382;53.160;7.026;2024-03-23T01:29:53;6.50;99.90
52471;DHT22;38382;53.160;7.026;2024-03-23T01:32:19;5.40;99.90
52471;DHT22;38382;53.160;7.026;2024-03-23T01:34:45;5.40;99.90
52471;DHT22;38382;53.160;7.026;2024-03-23T01:37:11;6.40;99.90
52471;DHT22;38382;53.160;7.026;2024-03-23T01:39:36;5.30;99.90
52471;DHT22;38382;53.160;7.026;2024-03-23T01:42:02;5.30;99.90
52471;DHT22;38382;53.160;7.026;2024-03-23T01:44:28;5.30;99.90
52471;DHT22;38382;53.160;7.026;2024-03-23T01:46:54;6.40;99.90
52471;DHT22;38382;53.160;7.026;2024-03-23T01:49:20;5.20;99.90
52471;DHT22;38382;53.160;7.026;2024-03-23T01:51:46;5.20;99.90
52471;DHT22;38382;53.160;7.026;2024-03-23T01:54:12;5.20;99.90
52471;DHT22;38382;53.160;7.026;2024-03-23T01:56:38;5.20;99.90
52471;DHT22;38382;53.160;7.026;2024-03-23T01:59:07;5.20;99.90
52471;DHT22;38382;53.160;7.026;2024-03-23T02:01:36;5.10;99.90
52471;DHT22;38382;53.160;7.026;2024-03-23T02:04:02;5.10;99.90
52471;DHT22;38382;53.160;7.026;2024-03-23T02:06:27;5.30;99.90
52471;DHT22;38382;53.160;7.026;2024-03-23T02:08:56;5.70;99.90
52471;DHT22;38382;53.160;7.026;2024-03-23T02:11:23;5.00;99.90
52471;DHT22;38382;53.160;7.026;2024-03-23T02:13:48;5.00;99.90
52471;DHT22;38382;53.160;7.026;2024-03-23T02:16:14;5.30;99.90
52471;DHT22;38382;53.160;7.026;2024-03-23T02:18:40;5.00;99.90
52471;DHT22;38382;53.160;7.026;2024-03-23T02:21:05;5.00;99.90
52471;DHT22;38382;53.160;7.026;2024-03-23T02:23:31;5.80;99.90
52471;DHT22;38382;53.160;7.026;2024-03-23T02:25:57;4.80;99.90
52471;DHT22;38382;53.160;7.026;2024-03-23T02:28:23;4.80;99.90
52471;DHT22;38382;53.160;7.026;2024-03-23T02:30:49;4.80;99.90
52471;DHT22;38382;53.160;7.026;2024-03-23T02:33:15;4.80;99.90
52471;DHT22;38382;53.160;7.026;2024-03-23T02:35:41;4.70;99.90
52471;DHT22;38382;53.160;7.026;2024-03-23T02:38:07;4.80;99.90
52471;DHT22;38382;53.160;7.026;2024-03-23T02:40:33;5.60;99.90
52471;DHT22;38382;53.160;7.026;2024-03-23T02:42:59;4.60;99.90
52471;DHT22;38382;53.160;7.026;2024-03-23T02:45:24;4.70;99.90
52471;DHT22;38382;53.160;7.026;2024-03-23T02:47:50;5.50;99.90
52471;DHT22;38382;53.160;7.026;2024-03-23T02:50:19;4.70;99.90
52471;DHT22;38382;53.160;7.026;2024-03-23T02:52:45;4.60;99.90
52471;DHT22;38382;53.160;7.026;2024-03-23T02:55:11;4.70;99.90
52471;DHT22;38382;53.160;7.026;2024-03-23T02:57:37;4.60;99.90
52471;DHT22;38382;53.160;7.026;2024-03-23T03:00:03;4.60;99.90
52471;DHT22;38382;53.160;7.026;2024-03-23T03:02:29;4.60;99.90
52471;DHT22;38382;53.160;7.026;2024-03-23T03:04:55;4.60;99.90
52471;DHT22;38382;53.160;7.026;2024-03-23T03:07:20;5.20;99.90
52471;DHT22;38382;53.160;7.026;2024-03-23T03:09:46;4.50;99.90
52471;DHT22;38382;53.160;7.026;2024-03-23T03:12:12;5.30;99.90
52471;DHT22;38382;53.160;7.026;2024-03-23T03:14:37;4.50;99.90
52471;DHT22;38382;53.160;7.026;2024-03-23T03:17:03;5.90;99.90
52471;DHT22;38382;53.160;7.026;2024-03-23T03:19:29;4.80;99.90
52471;DHT22;38382;53.160;7.026;2024-03-23T03:21:55;4.40;99.90
52471;DHT22;38382;53.160;7.026;2024-03-23T03:24:21;4.40;99.90
52471;DHT22;38382;53.160;7.026;2024-03-23T03:26:47;4.80;99.90
52471;DHT22;38382;53.160;7.026;2024-03-23T03:29:12;5.60;99.90
52471;DHT22;38382;53.160;7.026;2024-03-23T03:31:39;4.90;99.90
52471;DHT22;38382;53.160;7.026;2024-03-23T03:34:04;4.60;99.90
52471;DHT22;38382;53.160;7.026;2024-03-23T03:36:30;4.40;99.90
52471;DHT22;38382;53.160;7.026;2024-03-23T03:38:56;4.30;99.90
52471;DHT22;38382;53.160;7.026;2024-03-23T03:41:22;4.30;99.90
52471;DHT22;38382;53.160;7.026;2024-03-23T03:43:47;4.50;99.90
52471;DHT22;38382;53.160;7.026;2024-03-23T03:46:13;5.40;99.90
52471;DHT22;38382;53.160;7.026;2024-03-23T03:48:39;4.30;99.90
52471;DHT22;38382;53.160;7.026;2024-03-23T03:51:05;5.10;99.90
52471;DHT22;38382;53.160;7.026;2024-03-23T03:53:31;4.20;99.90
52471;DHT22;38382;53.160;7.026;2024-03-23T03:56:00;4.20;99.90
52471;DHT22;38382;53.160;7.026;2024-03-23T03:58:26;5.20;99.90
52471;DHT22;38382;53.160;7.026;2024-03-23T04:00:51;5.40;99.90
52471;DHT22;38382;53.160;7.026;2024-03-23T04:03:17;5.40;99.90
52471;DHT22;38382;53.160;7.026;2024-03-23T04:05:43;4.20;99.90
52471;DHT22;38382;53.160;7.026;2024-03-23T04:08:08;5.60;99.90
52471;DHT22;38382;53.160;7.026;2024-03-23T04:10:34;4.10;99.90
52471;DHT22;38382;53.160;7.026;2024-03-23T04:13:00;4.10;99.90
52471;DHT22;38382;53.160;7.026;2024-03-23T04:15:26;4.10;99.90
52471;DHT22;38382;53.160;7.026;2024-03-23T04:17:52;4.10;99.90
52471;DHT22;38382;53.160;7.026;2024-03-23T04:20:18;4.10;99.90
52471;DHT22;38382;53.160;7.026;2024-03-23T04:22:44;4.00;99.90
52471;DHT22;38382;53.160;7.026;2024-03-23T04:25:10;4.10;99.90
52471;DHT22;38382;53.160;7.026;2024-03-23T04:27:39;4.60;99.90
52471;DHT22;38382;53.160;7.026;2024-03-23T04:30:06;4.00;99.90
52471;DHT22;38382;53.160;7.026;2024-03-23T04:32:39;4.00;99.90
52471;DHT22;38382;53.160;7.026;2024-03-23T04:35:05;3.90;99.90
52471;DHT22;38382;53.160;7.026;2024-03-23T04:37:40;3.90;99.90
52471;DHT22;38382;53.160;7.026;2024-03-23T04:40:08;5.20;99.90
52471;DHT22;38382;53.160;7.026;2024-03-23T04:42:34;3.80;99.90
52471;DHT22;38382;53.160;7.026;2024-03-23T04:45:00;3.90;99.90
52471;DHT22;38382;53.160;7.026;2024-03-23T04:47:26;3.80;99.90
52471;DHT22;38382;53.160;7.026;2024-03-23T04:49:52;4.00;99.90
52471;DHT22;38382;53.160;7.026;2024-03-23T04:52:18;3.80;99.90
52471;DHT22;38382;53.160;7.026;2024-03-23T04:54:44;3.80;99.90
52471;DHT22;38382;53.160;7.026;2024-03-23T04:57:11;3.70;99.90
52471;DHT22;38382;53.160;7.026;2024-03-23T04:59:36;3.70;99.90
52471;DHT22;38382;53.160;7.026;2024-03-23T05:02:02;3.70;99.90
52471;DHT22;38382;53.160;7.026;2024-03-23T05:04:28;3.70;99.90
52471;DHT22;38382;53.160;7.026;2024-03-23T05:06:54;4.90;99.90
52471;DHT22;38382;53.160;7.026;2024-03-23T05:09:20;3.60;99.90
52471;DHT22;38382;53.160;7.026;2024-03-23T05:11:46;4.50;99.90
52471;DHT22;38382;53.160;7.026;2024-03-23T05:14:15;3.60;99.90
52471;DHT22;38382;53.160;7.026;2024-03-23T05:16:40;4.80;99.90
52471;DHT22;38382;53.160;7.026;2024-03-23T05:19:06;4.50;99.90
52471;DHT22;38382;53.160;7.026;2024-03-23T05:21:32;3.60;99.90
52471;DHT22;38382;53.160;7.026;2024-03-23T05:23:58;4.70;99.90
52471;DHT22;38382;53.160;7.026;2024-03-23T05:26:24;4.40;99.90
52471;DHT22;38382;53.160;7.026;2024-03-23T05:28:50;3.60;99.90
52471;DHT22;38382;53.160;7.026;2024-03-23T05:31:26;5.10;99.90
52471;DHT22;38382;53.160;7.026;2024-03-23T05:33:52;4.40;99.90
52471;DHT22;38382;53.160;7.026;2024-03-23T05:36:18;3.60;99.90
52471;DHT22;38382;53.160;7.026;2024-03-23T05:38:44;4.30;99.90
52471;DHT22;38382;53.160;7.026;2024-03-23T05:41:10;3.60;99.90
52471;DHT22;38382;53.160;7.026;2024-03-23T05:43:36;3.60;99.90
52471;DHT22;38382;53.160;7.026;2024-03-23T05:46:01;3.60;99.90
52471;DHT22;38382;53.160;7.026;2024-03-23T05:48:28;3.60;99.90
52471;DHT22;38382;53.160;7.026;2024-03-23T05:50:55;4.30;99.90
52471;DHT22;38382;53.160;7.026;2024-03-23T05:53:21;3.60;99.90
52471;DHT22;38382;53.160;7.026;2024-03-23T05:55:47;3.60;99.90
52471;DHT22;38382;53.160;7.026;2024-03-23T05:58:16;3.50;99.90
52471;DHT22;38382;53.160;7.026;2024-03-23T06:00:43;3.60;99.90
52471;DHT22;38382;53.160;7.026;2024-03-23T06:03:09;4.90;99.90
52471;DHT22;38382;53.160;7.026;2024-03-23T06:05:36;4.30;99.90
52471;DHT22;38382;53.160;7.026;2024-03-23T06:08:01;3.80;99.90
52471;DHT22;38382;53.160;7.026;2024-03-23T06:10:28;3.80;99.90
52471;DHT22;38382;53.160;7.026;2024-03-23T06:12:53;4.10;99.90
52471;DHT22;38382;53.160;7.026;2024-03-23T06:15:19;4.90;99.90
52471;DHT22;38382;53.160;7.026;2024-03-23T06:17:45;4.50;99.90
52471;DHT22;38382;53.160;7.026;2024-03-23T06:20:12;4.30;99.90
52471;DHT22;38382;53.160;7.026;2024-03-23T06:22:38;4.10;99.90
52471;DHT22;38382;53.160;7.026;2024-03-23T06:25:04;5.00;99.90
52471;DHT22;38382;53.160;7.026;2024-03-23T06:27:30;4.20;99.90
52471;DHT22;38382;53.160;7.026;2024-03-23T06:29:58;4.30;99.90
52471;DHT22;38382;53.160;7.026;2024-03-23T06:32:23;4.90;99.90
52471;DHT22;38382;53.160;7.026;2024-03-23T06:34:49;6.00;99.90
52471;DHT22;38382;53.160;7.026;2024-03-23T06:37:15;4.60;99.90
52471;DHT22;38382;53.160;7.026;2024-03-23T06:39:40;5.80;99.90
52471;DHT22;38382;53.160;7.026;2024-03-23T06:42:06;4.90;99.90
52471;DHT22;38382;53.160;7.026;2024-03-23T06:44:33;5.10;99.90
52471;DHT22;38382;53.160;7.026;2024-03-23T06:46:59;6.20;99.90
52471;DHT22;38382;53.160;7.026;2024-03-23T06:49:25;6.80;99.90
52471;DHT22;38382;53.160;7.026;2024-03-23T06:51:51;6.80;99.90
52471;DHT22;38382;53.160;7.026;2024-03-23T06:54:17;5.80;99.90
52471;DHT22;38382;53.160;7.026;2024-03-23T06:56:46;6.40;99.90
52471;DHT22;38382;53.160;7.026;2024-03-23T06:59:12;6.50;99.90
52471;DHT22;38382;53.160;7.026;2024-03-23T07:01:38;5.70;99.90
52471;DHT22;38382;53.160;7.026;2024-03-23T07:04:04;6.00;99.90
52471;DHT22;38382;53.160;7.026;2024-03-23T07:06:31;6.70;99.90
52471;DHT22;38382;53.160;7.026;2024-03-23T07:08:56;5.70;99.90
52471;DHT22;38382;53.160;7.026;2024-03-23T07:11:23;5.50;99.90
52471;DHT22;38382;53.160;7.026;2024-03-23T07:13:53;6.00;99.90
52471;DHT22;38382;53.160;7.026;2024-03-23T07:16:22;5.80;99.90
52471;DHT22;38382;53.160;7.026;2024-03-23T07:18:49;5.90;99.90
52471;DHT22;38382;53.160;7.026;2024-03-23T07:21:15;6.90;99.90
52471;DHT22;38382;53.160;7.026;2024-03-23T07:23:44;6.00;99.90
52471;DHT22;38382;53.160;7.026;2024-03-23T07:26:10;6.40;99.90
52471;DHT22;38382;53.160;7.026;2024-03-23T07:28:36;6.10;99.90
52471;DHT22;38382;53.160;7.026;2024-03-23T07:31:08;6.60;99.90
52471;DHT22;38382;53.160;7.026;2024-03-23T07:33:35;6.20;99.90
52471;DHT22;38382;53.160;7.026;2024-03-23T07:36:01;6.20;99.90
52471;DHT22;38382;53.160;7.026;2024-03-23T07:38:28;6.30;99.90
52471;DHT22;38382;53.160;7.026;2024-03-23T07:41:23;6.40;99.90
52471;DHT22;38382;53.160;7.026;2024-03-23T07:43:49;6.70;99.90
52471;DHT22;38382;53.160;7.026;2024-03-23T07:46:16;6.70;99.90
52471;DHT22;38382;53.160;7.026;2024-03-23T07:48:42;7.40;99.90
52471;DHT22;38382;53.160;7.026;2024-03-23T07:51:09;7.70;99.90
52471;DHT22;38382;53.160;7.026;2024-03-23T07:53:36;6.70;99.90
52471;DHT22;38382;53.160;7.026;2024-03-23T07:56:07;6.80;99.90
52471;DHT22;38382;53.160;7.026;2024-03-23T07:58:33;6.70;99.90
52471;DHT22;38382;53.160;7.026;2024-03-23T08:01:10;6.80;99.90
52471;DHT22;38382;53.160;7.026;2024-03-23T08:03:37;6.80;99.90
52471;DHT22;38382;53.160;7.026;2024-03-23T08:06:13;6.90;99.90
52471;DHT22;38382;53.160;7.026;2024-03-23T08:08:40;7.00;99.90
52471;DHT22;38382;53.160;7.026;2024-03-23T08:11:06;7.00;99.90
52471;DHT22;38382;53.160;7.026;2024-03-23T08:13:34;7.10;99.90
52471;DHT22;38382;53.160;7.026;2024-03-23T08:16:01;7.20;99.90
52471;DHT22;38382;53.160;7.026;2024-03-23T08:18:27;7.30;99.90
52471;DHT22;38382;53.160;7.026;2024-03-23T08:21:00;8.20;99.90
52471;DHT22;38382;53.160;7.026;2024-03-23T08:23:34;7.70;99.90
52471;DHT22;38382;53.160;7.026;2024-03-23T08:26:02;7.80;99.90
52471;DHT22;38382;53.160;7.026;2024-03-23T08:28:28;8.00;99.90
52471;DHT22;38382;53.160;7.026;2024-03-23T08:30:56;8.20;99.90
52471;DHT22;38382;53.160;7.026;2024-03-23T08:33:23;8.30;99.90
52471;DHT22;38382;53.160;7.026;2024-03-23T08:36:00;8.30;99.90
52471;DHT22;38382;53.160;7.026;2024-03-23T08:38:27;8.40;99.90
52471;DHT22;38382;53.160;7.026;2024-03-23T08:41:03;8.40;99.90
52471;DHT22;38382;53.160;7.026;2024-03-23T08:43:30;8.40;99.90
52471;DHT22;38382;53.160;7.026;2024-03-23T08:46:07;8.50;99.90
52471;DHT22;38382;53.160;7.026;2024-03-23T08:48:39;8.50;99.90
52471;DHT22;38382;53.160;7.026;2024-03-23T08:51:10;8.40;99.90
52471;DHT22;38382;53.160;7.026;2024-03-23T08:53:36;8.40;99.90
52471;DHT22;38382;53.160;7.026;2024-03-23T08:56:03;8.30;99.90
52471;DHT22;38382;53.160;7.026;2024-03-23T08:58:31;8.50;99.90
52471;DHT22;38382;53.160;7.026;2024-03-23T09:01:03;8.70;99.90
52471;DHT22;38382;53.160;7.026;2024-03-23T09:03:29;9.60;99.90
52471;DHT22;38382;53.160;7.026;2024-03-23T09:05:55;8.60;99.90
52471;DHT22;38382;53.160;7.026;2024-03-23T09:08:21;9.10;99.90
52471;DHT22;38382;53.160;7.026;2024-03-23T09:10:47;8.80;99.90
52471;DHT22;38382;53.160;7.026;2024-03-23T09:13:14;9.10;99.90
52471;DHT22;38382;53.160;7.026;2024-03-23T09:15:50;9.30;99.90
52471;DHT22;38382;53.160;7.026;2024-03-23T09:18:17;9.40;99.90
52471;DHT22;38382;53.160;7.026;2024-03-23T09:20:43;9.60;99.90
52471;DHT22;38382;53.160;7.026;2024-03-23T09:23:09;9.80;99.90
52471;DHT22;38382;53.160;7.026;2024-03-23T09:25:38;9.90;99.90
52471;DHT22;38382;53.160;7.026;2024-03-23T09:28:08;10.10;99.90
52471;DHT22;38382;53.160;7.026;2024-03-23T09:30:34;10.00;99.90
52471;DHT22;38382;53.160;7.026;2024-03-23T09:33:00;10.20;99.90
52471;DHT22;38382;53.160;7.026;2024-03-23T09:35:26;10.20;99.90
52471;DHT22;38382;53.160;7.026;2024-03-23T09:37:52;10.40;99.90
52471;DHT22;38382;53.160;7.026;2024-03-23T09:40:18;10.20;99.90
52471;DHT22;38382;53.160;7.026;2024-03-23T09:42:52;10.30;99.90
52471;DHT22;38382;53.160;7.026;2024-03-23T09:45:28;10.60;99.90
52471;DHT22;38382;53.160;7.026;2024-03-23T09:47:57;10.70;99.90
52471;DHT22;38382;53.160;7.026;2024-03-23T09:50:23;10.50;99.90
52471;DHT22;38382;53.160;7.026;2024-03-23T09:52:49;10.50;99.90
52471;DHT22;38382;53.160;7.026;2024-03-23T09:55:15;10.50;99.90
52471;DHT22;38382;53.160;7.026;2024-03-23T09:57:41;10.50;99.90
52471;DHT22;38382;53.160;7.026;2024-03-23T10:00:08;10.40;99.90
52471;DHT22;38382;53.160;7.026;2024-03-23T10:02:35;10.40;99.90
52471;DHT22;38382;53.160;7.026;2024-03-23T10:05:01;11.30;99.90
52471;DHT22;38382;53.160;7.026;2024-03-23T10:07:26;10.50;99.90
52471;DHT22;38382;53.160;7.026;2024-03-23T10:09:55;10.40;99.90
52471;DHT22;38382;53.160;7.026;2024-03-23T10:12:21;10.30;99.90
52471;DHT22;38382;53.160;7.026;2024-03-23T10:14:47;10.20;99.90
52471;DHT22;38382;53.160;7.026;2024-03-23T10:17:18;10.00;99.90
52471;DHT22;38382;53.160;7.026;2024-03-23T10:19:44;9.90;99.90
52471;DHT22;38382;53.160;7.026;2024-03-23T10:22:13;9.20;99.90
52471;DHT22;38382;53.160;7.026;2024-03-23T10:24:39;8.50;99.90
52471;DHT22;38382;53.160;7.026;2024-03-23T10:27:05;8.20;99.90
52471;DHT22;38382;53.160;7.026;2024-03-23T10:29:31;8.00;99.90
52471;DHT22;38382;53.160;7.026;2024-03-23T10:32:12;8.00;99.90
52471;DHT22;38382;53.160;7.026;2024-03-23T10:34:39;7.90;99.90
52471;DHT22;38382;53.160;7.026;2024-03-23T10:37:06;8.50;99.90
52471;DHT22;38382;53.160;7.026;2024-03-23T10:39:37;8.10;99.90
52471;DHT22;38382;53.160;7.026;2024-03-23T10:42:04;7.50;99.90
52471;DHT22;38382;53.160;7.026;2024-03-23T10:44:31;7.40;99.90
52471;DHT22;38382;53.160;7.026;2024-03-23T10:47:00;7.40;99.90
52471;DHT22;38382;53.160;7.026;2024-03-23T10:49:29;7.80;99.90
52471;DHT22;38382;53.160;7.026;2024-03-23T10:52:04;8.30;99.90
52471;DHT22;38382;53.160;7.026;2024-03-23T10:54:31;8.50;99.90
52471;DHT22;38382;53.160;7.026;2024-03-23T10:59:29;9.30;99.90
52471;DHT22;38382;53.160;7.026;2024-03-23T11:01:59;9.50;99.90
52471;DHT22;38382;53.160;7.026;2024-03-23T11:04:35;10.10;99.90
52471;DHT22;38382;53.160;7.026;2024-03-23T11:07:02;10.30;99.90
52471;DHT22;38382;53.160;7.026;2024-03-23T11:09:43;10.60;99.90
52471;DHT22;38382;53.160;7.026;2024-03-23T11:14:55;11.10;99.90
52471;DHT22;38382;53.160;7.026;2024-03-23T11:17:22;10.80;99.90
52471;DHT22;38382;53.160;7.026;2024-03-23T11:20:03;10.50;99.90
52471;DHT22;38382;53.160;7.026;2024-03-23T11:22:46;10.70;99.90
52471;DHT22;38382;53.160;7.026;2024-03-23T11:25:19;10.60;99.90
52471;DHT22;38382;53.160;7.026;2024-03-23T11:27:47;10.40;99.90
52471;DHT22;38382;53.160;7.026;2024-03-23T11:30:17;10.00;99.90
52471;DHT22;38382;53.160;7.026;2024-03-23T11:32:45;9.40;99.90
52471;DHT22;38382;53.160;7.026;2024-03-23T11:35:24;8.50;99.90
52471;DHT22;38382;53.160;7.026;2024-03-23T11:38:02;7.40;99.90
52471;DHT22;38382;53.160;7.026;2024-03-23T11:40:28;6.90;99.90
52471;DHT22;38382;53.160;7.026;2024-03-23T11:43:05;7.00;99.90
52471;DHT22;38382;53.160;7.026;2024-03-23T11:45:39;6.20;99.90
52471;DHT22;38382;53.160;7.026;2024-03-23T11:48:10;6.10;99.90
52471;DHT22;38382;53.160;7.026;2024-03-23T11:50:41;6.00;99.90
52471;DHT22;38382;53.160;7.026;2024-03-23T11:53:17;6.10;99.90
52471;DHT22;38382;53.160;7.026;2024-03-23T11:55:55;6.40;99.90
52471;DHT22;38382;53.160;7.026;2024-03-23T11:58:22;7.00;99.90
52471;DHT22;38382;53.160;7.026;2024-03-23T12:01:02;7.30;99.90
52471;DHT22;38382;53.160;7.026;2024-03-23T12:03:29;7.90;99.90
52471;DHT22;38382;53.160;7.026;2024-03-23T12:05:57;8.30;99.90
52471;DHT22;38382;53.160;7.026;2024-03-23T12:08:28;8.90;99.90
52471;DHT22;38382;53.160;7.026;2024-03-23T12:11:12;9.20;99.90
52471;DHT22;38382;53.160;7.026;2024-03-23T12:13:39;9.30;99.90
52471;DHT22;38382;53.160;7.026;2024-03-23T12:18:41;10.00;99.90
52471;DHT22;38382;53.160;7.026;2024-03-23T12:21:08;10.40;99.90
52471;DHT22;38382;53.160;7.026;2024-03-23T12:23:35;10.90;99.90
52471;DHT22;38382;53.160;7.026;2024-03-23T12:26:01;11.00;99.90
52471;DHT22;38382;53.160;7.026;2024-03-23T12:28:27;11.10;99.90
52471;DHT22;38382;53.160;7.026;2024-03-23T12:30:59;11.10;99.90
52471;DHT22;38382;53.160;7.026;2024-03-23T12:33:25;10.80;99.90
52471;DHT22;38382;53.160;7.026;2024-03-23T12:35:52;10.40;99.90
52471;DHT22;38382;53.160;7.026;2024-03-23T12:38:19;10.20;99.90
52471;DHT22;38382;53.160;7.026;2024-03-23T12:40:48;10.10;99.90
52471;DHT22;38382;53.160;7.026;2024-03-23T12:43:15;9.80;99.90
52471;DHT22;38382;53.160;7.026;2024-03-23T12:45:41;9.60;99.90
52471;DHT22;38382;53.160;7.026;2024-03-23T12:48:07;9.40;99.90
52471;DHT22;38382;53.160;7.026;2024-03-23T12:50:33;9.20;99.90
52471;DHT22;38382;53.160;7.026;2024-03-23T12:52:58;9.30;99.90
52471;DHT22;38382;53.160;7.026;2024-03-23T12:55:24;9.30;99.90
52471;DHT22;38382;53.160;7.026;2024-03-23T12:57:50;9.40;99.90
52471;DHT22;38382;53.160;7.026;2024-03-23T13:00:16;9.50;99.90
52471;DHT22;38382;53.160;7.026;2024-03-23T13:02:42;9.50;99.90
52471;DHT22;38382;53.160;7.026;2024-03-23T13:05:08;9.50;99.90
52471;DHT22;38382;53.160;7.026;2024-03-23T13:07:36;9.70;99.90
52471;DHT22;38382;53.160;7.026;2024-03-23T13:10:03;10.20;99.90
52471;DHT22;38382;53.160;7.026;2024-03-23T13:12:29;10.30;99.90
52471;DHT22;38382;53.160;7.026;2024-03-23T13:14:56;10.70;99.90
52471;DHT22;38382;53.160;7.026;2024-03-23T13:17:21;10.90;99.90
52471;DHT22;38382;53.160;7.026;2024-03-23T13:19:47;11.20;99.90
52471;DHT22;38382;53.160;7.026;2024-03-23T13:22:13;11.40;99.90
52471;DHT22;38382;53.160;7.026;2024-03-23T13:24:39;11.60;99.90
52471;DHT22;38382;53.160;7.026;2024-03-23T13:27:05;12.10;99.90
52471;DHT22;38382;53.160;7.026;2024-03-23T13:29:34;12.00;99.90
52471;DHT22;38382;53.160;7.026;2024-03-23T13:32:00;11.60;99.90
52471;DHT22;38382;53.160;7.026;2024-03-23T13:34:26;11.20;99.90
52471;DHT22;38382;53.160;7.026;2024-03-23T13:36:53;11.30;99.90
52471;DHT22;38382;53.160;7.026;2024-03-23T13:39:19;11.80;99.90
52471;DHT22;38382;53.160;7.026;2024-03-23T13:41:51;12.10;99.90
52471;DHT22;38382;53.160;7.026;2024-03-23T13:44:16;12.80;99.90
52471;DHT22;38382;53.160;7.026;2024-03-23T13:46:43;12.70;99.90
52471;DHT22;38382;53.160;7.026;2024-03-23T13:51:50;13.50;99.90
52471;DHT22;38382;53.160;7.026;2024-03-23T13:54:15;13.20;99.90
52471;DHT22;38382;53.160;7.026;2024-03-23T13:56:41;13.20;99.90
52471;DHT22;38382;53.160;7.026;2024-03-23T13:59:07;13.30;99.90
52471;DHT22;38382;53.160;7.026;2024-03-23T14:01:32;13.30;99.90
52471;DHT22;38382;53.160;7.026;2024-03-23T14:03:59;13.50;99.90
52471;DHT22;38382;53.160;7.026;2024-03-23T14:06:24;13.30;99.90
52471;DHT22;38382;53.160;7.026;2024-03-23T14:08:50;13.20;99.90
52471;DHT22;38382;53.160;7.026;2024-03-23T14:11:18;13.30;99.90
52471;DHT22;38382;53.160;7.026;2024-03-23T14:13:44;13.00;99.90
52471;DHT22;38382;53.160;7.026;2024-03-23T14:16:10;12.50;99.90
52471;DHT22;38382;53.160;7.026;2024-03-23T14:18:36;11.80;99.90
52471;DHT22;38382;53.160;7.026;2024-03-23T14:21:02;10.80;99.90
52471;DHT22;38382;53.160;7.026;2024-03-23T14:23:29;10.50;99.90
52471;DHT22;38382;53.160;7.026;2024-03-23T14:25:58;10.10;99.90
52471;DHT22;38382;53.160;7.026;2024-03-23T14:28:24;9.90;99.90
52471;DHT22;38382;53.160;7.026;2024-03-23T14:30:50;9.70;99.90
52471;DHT22;38382;53.160;7.026;2024-03-23T14:33:17;9.30;99.90
52471;DHT22;38382;53.160;7.026;2024-03-23T14:35:51;9.00;99.90
52471;DHT22;38382;53.160;7.026;2024-03-23T14:38:17;9.50;99.90
52471;DHT22;38382;53.160;7.026;2024-03-23T14:40:43;11.10;99.90
52471;DHT22;38382;53.160;7.026;2024-03-23T14:43:09;12.20;99.90
52471;DHT22;38382;53.160;7.026;2024-03-23T14:45:34;11.70;99.90
52471;DHT22;38382;53.160;7.026;2024-03-23T14:48:00;11.20;99.90
52471;DHT22;38382;53.160;7.026;2024-03-23T14:50:26;10.80;99.90
52471;DHT22;38382;53.160;7.026;2024-03-23T14:52:52;10.40;99.90
52471;DHT22;38382;53.160;7.026;2024-03-23T14:55:18;10.00;99.90
52471;DHT22;38382;53.160;7.026;2024-03-23T14:57:45;9.70;99.90
52471;DHT22;38382;53.160;7.026;2024-03-23T15:00:11;10.40;99.90
52471;DHT22;38382;53.160;7.026;2024-03-23T15:02:38;11.50;99.90
52471;DHT22;38382;53.160;7.026;2024-03-23T15:05:04;12.80;99.90
52471;DHT22;38382;53.160;7.026;2024-03-23T15:07:33;14.40;99.90
52471;DHT22;38382;53.160;7.026;2024-03-23T15:09:59;15.40;99.20
52471;DHT22;38382;53.160;7.026;2024-03-23T15:12:24;16.50;98.30
52471;DHT22;38382;53.160;7.026;2024-03-23T15:14:50;16.90;94.40
52471;DHT22;38382;53.160;7.026;2024-03-23T15:17:16;17.00;93.60
52471;DHT22;38382;53.160;7.026;2024-03-23T15:19:42;17.40;92.40
52471;DHT22;38382;53.160;7.026;2024-03-23T15:22:08;17.40;90.90
52471;DHT22;38382;53.160;7.026;2024-03-23T15:24:34;16.60;91.20
52471;DHT22;38382;53.160;7.026;2024-03-23T15:27:03;16.00;92.20
52471;DHT22;38382;53.160;7.026;2024-03-23T15:29:29;14.70;94.30
52471;DHT22;38382;53.160;7.026;2024-03-23T15:31:55;13.60;95.00
52471;DHT22;38382;53.160;7.026;2024-03-23T15:34:21;12.50;97.50
52471;DHT22;38382;53.160;7.026;2024-03-23T15:36:52;12.10;99.50
52471;DHT22;38382;53.160;7.026;2024-03-23T15:39:18;11.60;99.90
52471;DHT22;38382;53.160;7.026;2024-03-23T15:41:45;12.30;99.90
52471;DHT22;38382;53.160;7.026;2024-03-23T15:44:11;13.00;99.90
52471;DHT22;38382;53.160;7.026;2024-03-23T15:46:37;13.70;99.90
52471;DHT22;38382;53.160;7.026;2024-03-23T15:49:02;14.50;99.90
52471;DHT22;38382;53.160;7.026;2024-03-23T15:51:28;15.50;99.90
52471;DHT22;38382;53.160;7.026;2024-03-23T15:53:58;15.20;92.70
52471;DHT22;38382;53.160;7.026;2024-03-23T15:56:24;15.10;94.20
52471;DHT22;38382;53.160;7.026;2024-03-23T15:58:50;15.40;96.10
52471;DHT22;38382;53.160;7.026;2024-03-23T16:01:16;15.70;93.60
52471;DHT22;38382;53.160;7.026;2024-03-23T16:03:41;15.70;93.60
52471;DHT22;38382;53.160;7.026;2024-03-23T16:06:07;15.40;91.50
52471;DHT22;38382;53.160;7.026;2024-03-23T16:08:34;15.00;92.80
52471;DHT22;38382;53.160;7.026;2024-03-23T16:13:26;13.20;95.30
52471;DHT22;38382;53.160;7.026;2024-03-23T16:15:57;12.40;95.80
52471;DHT22;38382;53.160;7.026;2024-03-23T16:18:24;11.70;98.80
52471;DHT22;38382;53.160;7.026;2024-03-23T16:23:19;10.80;99.90
52471;DHT22;38382;53.160;7.026;2024-03-23T16:25:53;10.50;99.90
52471;DHT22;38382;53.160;7.026;2024-03-23T16:28:26;10.20;99.90
52471;DHT22;38382;53.160;7.026;2024-03-23T16:31:03;10.00;99.90
52471;DHT22;38382;53.160;7.026;2024-03-23T16:33:30;9.70;99.90
52471;DHT22;38382;53.160;7.026;2024-03-23T16:36:06;9.80;99.90
52471;DHT22;38382;53.160;7.026;2024-03-23T16:38:35;9.80;99.90
52471;DHT22;38382;53.160;7.026;2024-03-23T16:43:27;9.70;99.90
52471;DHT22;38382;53.160;7.026;2024-03-23T16:48:18;9.40;99.90
52471;DHT22;38382;53.160;7.026;2024-03-23T16:50:44;9.30;99.90
52471;DHT22;38382;53.160;7.026;2024-03-23T16:53:10;9.00;99.90
52471;DHT22;38382;53.160;7.026;2024-03-23T16:55:36;9.00;99.90